South Rockwood, Michigan
Current Conditions -  °F | °C
As of 7:34 AM on Saturday 25 Oct 2014 (Local Time) from KONZ Reporting Station
Haze Haze  
Wind Chill: 52°   Ceiling: 5000
Heat Index: 52°   Visibility: 4mi
Dew Point: 48°   Wind: 5mph
Humidity: 88%   Direction: 200°SSW
Pressure: 29.85"   Gusts: NA
Location:  42.06°N, 83.26°W
Report Text: KONZ 251134Z AUTO 20004KT 4SM BR BKN050 OVC055 11/09 A2985 RMK AO2
Loading
Personal Weather Stations






























Interactive Weather Map
Tropical Storm Tracking
New forecast layout! Learn more

10-Day Weather Forecast

Advertisements
Track Severe Weather on mobile